createdAt,value
2023-03-16T00:02:37.063Z,3.00
2023-03-16T00:07:35.616Z,2.90
2023-03-16T00:12:34.755Z,2.80
2023-03-16T00:17:34.908Z,2.90
2023-03-16T00:22:33.314Z,2.70
2023-03-16T00:27:31.565Z,2.70
2023-03-16T00:32:32.114Z,2.70
2023-03-16T00:37:33.396Z,2.60
2023-03-16T00:42:34.304Z,2.60
2023-03-16T00:47:34.244Z,2.60
2023-03-16T00:52:35.451Z,2.60
2023-03-16T01:02:49.482Z,2.50
2023-03-16T01:07:52.411Z,2.50
2023-03-16T01:12:50.831Z,2.50
2023-03-16T01:17:49.262Z,2.50
2023-03-16T01:22:47.541Z,2.50
2023-03-16T01:27:47.136Z,2.50
2023-03-16T01:32:45.449Z,2.50
2023-03-16T01:37:45.204Z,2.50
2023-03-16T01:43:00.748Z,2.40
2023-03-16T01:48:01.038Z,2.30
2023-03-16T01:52:59.466Z,2.10
2023-03-16T01:57:59.206Z,2.10
2023-03-16T02:03:02.208Z,2.10
2023-03-16T02:08:12.631Z,2.10
2023-03-16T02:13:12.809Z,2.10
2023-03-16T02:18:11.250Z,2.20
2023-03-16T02:23:18.556Z,2.20
2023-03-16T02:28:27.086Z,2.10
2023-03-16T02:33:27.271Z,2.10
2023-03-16T02:38:26.347Z,2.10
2023-03-16T02:43:29.830Z,2.10
2023-03-16T02:48:48.952Z,2.10
2023-03-16T02:53:47.311Z,2.10
2023-03-16T02:58:46.211Z,2.20
2023-03-16T03:03:50.569Z,2.20
2023-03-16T03:08:48.924Z,2.20
2023-03-16T03:13:47.636Z,2.10
2023-03-16T03:18:52.843Z,2.10
2023-03-16T03:23:51.747Z,2.00
2023-03-16T03:28:49.810Z,1.90
2023-03-16T03:33:48.294Z,1.80
2023-03-16T03:38:49.723Z,1.80
2023-03-16T03:43:51.055Z,1.80
2023-03-16T03:48:50.346Z,1.80
2023-03-16T03:53:50.091Z,1.80
2023-03-16T03:58:59.335Z,1.80
2023-03-16T04:04:16.427Z,1.70
2023-03-16T04:09:16.205Z,1.80
2023-03-16T04:14:16.083Z,1.80
2023-03-16T04:19:15.452Z,1.80
2023-03-16T04:24:15.877Z,1.70
2023-03-16T04:29:14.939Z,1.70
2023-03-16T04:34:14.151Z,1.70
2023-03-16T04:39:12.539Z,1.60
2023-03-16T04:44:12.657Z,1.60
2023-03-16T04:49:11.714Z,1.50
2023-03-16T04:54:13.667Z,1.50
2023-03-16T04:59:15.924Z,1.50
2023-03-16T05:04:19.958Z,1.50
2023-03-16T05:09:20.821Z,1.50
2023-03-16T05:14:21.172Z,1.50
2023-03-16T05:24:56.295Z,1.50
2023-03-16T05:29:55.800Z,1.50
2023-03-16T05:34:55.155Z,1.60
2023-03-16T05:39:53.705Z,1.60
2023-03-16T05:44:52.341Z,1.50
2023-03-16T05:50:11.376Z,1.40
2023-03-16T05:55:15.619Z,1.50
2023-03-16T06:00:18.268Z,1.50
2023-03-16T06:05:25.244Z,1.50
2023-03-16T06:10:23.980Z,1.60
2023-03-16T06:15:25.149Z,1.70
2023-03-16T06:20:25.587Z,1.80
2023-03-16T06:25:24.025Z,1.90
2023-03-16T06:30:23.331Z,2.10
2023-03-16T06:35:22.726Z,2.30
2023-03-16T06:40:39.497Z,2.50
2023-03-16T06:45:38.176Z,2.70
2023-03-16T06:50:36.748Z,2.90
2023-03-16T06:55:35.285Z,3.00
2023-03-16T07:00:35.245Z,3.10
2023-03-16T07:05:33.540Z,3.10
2023-03-16T07:10:32.907Z,3.30
2023-03-16T07:15:31.468Z,3.50
2023-03-16T07:20:33.237Z,3.70
2023-03-16T07:25:35.421Z,3.80
2023-03-16T07:30:34.925Z,3.90
2023-03-16T07:35:34.902Z,4.30
2023-03-16T07:40:34.649Z,4.40
2023-03-16T07:45:40.438Z,4.70
2023-03-16T07:50:40.552Z,5.10
2023-03-16T07:55:39.480Z,5.30
2023-03-16T08:00:40.051Z,5.50
2023-03-16T08:05:39.930Z,5.90
2023-03-16T08:10:44.673Z,5.90
2023-03-16T08:15:49.060Z,6.00
2023-03-16T08:20:56.728Z,6.40
2023-03-16T08:25:56.376Z,6.60
2023-03-16T08:30:58.676Z,7.10
2023-03-16T08:36:06.580Z,7.70
2023-03-16T08:41:04.878Z,8.30
2023-03-16T08:46:05.561Z,8.90
2023-03-16T08:51:17.715Z,9.80
2023-03-16T08:56:16.043Z,10.70
2023-03-16T09:01:15.624Z,11.00
2023-03-16T09:06:17.224Z,11.60
2023-03-16T09:11:18.830Z,12.50
2023-03-16T09:16:17.529Z,13.20
2023-03-16T09:21:16.993Z,14.40
2023-03-16T09:26:15.635Z,15.30
2023-03-16T09:31:19.085Z,14.90
2023-03-16T09:36:18.978Z,15.30
2023-03-16T09:41:33.754Z,16.20
2023-03-16T09:46:36.847Z,16.70
2023-03-16T09:51:43.615Z,16.90
2023-03-16T09:56:43.614Z,17.10
2023-03-16T10:02:28.163Z,17.30
2023-03-16T10:13:02.442Z,19.20
2023-03-16T10:18:06.640Z,19.10
2023-03-16T10:23:18.417Z,19.20
2023-03-16T10:28:18.729Z,19.10
2023-03-16T10:33:24.230Z,19.30
2023-03-16T10:38:38.769Z,20.20
2023-03-16T10:43:36.962Z,20.70
2023-03-16T10:48:35.617Z,21.80
2023-03-16T10:53:39.548Z,22.90
2023-03-16T10:58:42.607Z,21.90
2023-03-16T11:03:42.386Z,22.00
2023-03-16T11:08:42.306Z,22.50
2023-03-16T11:13:46.319Z,22.10
2023-03-16T11:18:49.949Z,22.30
2023-03-16T11:23:54.015Z,23.10
2023-03-16T11:28:59.352Z,22.60
2023-03-16T11:33:57.695Z,21.20
2023-03-16T11:39:06.838Z,20.60
2023-03-16T11:44:10.126Z,18.80
2023-03-16T11:49:29.177Z,16.70
2023-03-16T11:54:44.858Z,16.00
2023-03-16T12:00:01.449Z,15.70
2023-03-16T12:05:37.026Z,14.90
2023-03-16T12:10:42.011Z,14.60
2023-03-16T12:15:44.999Z,14.80
2023-03-16T12:20:51.237Z,14.40
2023-03-16T12:25:53.326Z,13.20
2023-03-16T12:30:59.713Z,13.20
2023-03-16T12:36:05.183Z,13.40
2023-03-16T12:41:17.997Z,13.90
2023-03-16T12:46:24.695Z,13.80
2023-03-16T12:51:33.393Z,13.80
2023-03-16T12:56:36.240Z,13.60
2023-03-16T13:01:40.789Z,13.30
2023-03-16T13:06:43.599Z,13.30
2023-03-16T13:11:50.132Z,13.20
2023-03-16T13:16:49.910Z,13.00
2023-03-16T13:21:48.274Z,12.80
2023-03-16T13:26:50.235Z,12.50
2023-03-16T13:31:49.045Z,12.30
2023-03-16T13:36:48.391Z,12.20
2023-03-16T13:41:59.717Z,12.40
2023-03-16T13:46:57.988Z,12.10
2023-03-16T13:51:56.338Z,12.00
2023-03-16T13:56:58.552Z,11.90
2023-03-16T14:01:59.810Z,12.00
2023-03-16T14:07:00.316Z,11.80
2023-03-16T14:12:00.125Z,12.00
2023-03-16T14:17:09.840Z,11.90
2023-03-16T14:22:12.441Z,11.70
2023-03-16T14:27:19.694Z,11.90
2023-03-16T14:32:28.542Z,12.10
2023-03-16T14:37:36.082Z,11.90
2023-03-16T14:42:36.247Z,11.70
2023-03-16T14:47:43.076Z,12.00
2023-03-16T14:52:41.436Z,12.20
2023-03-16T14:57:42.822Z,12.30
2023-03-16T15:02:43.318Z,12.30
2023-03-16T15:07:45.612Z,12.70
2023-03-16T15:12:50.692Z,12.80
2023-03-16T15:17:51.356Z,13.10
2023-03-16T15:22:51.866Z,13.30
2023-03-16T15:27:52.826Z,13.80
2023-03-16T15:32:51.487Z,14.20
2023-03-16T15:37:50.370Z,14.90
2023-03-16T15:42:48.603Z,15.30
2023-03-16T15:47:48.850Z,16.30
2023-03-16T15:52:50.680Z,17.60
2023-03-16T15:57:50.341Z,17.60
2023-03-16T16:02:50.023Z,16.40
2023-03-16T16:07:48.296Z,16.30
2023-03-16T16:12:51.535Z,17.40
2023-03-16T16:18:18.615Z,17.00
2023-03-16T16:23:10.949Z,15.80
2023-03-16T16:28:15.961Z,13.80
2023-03-16T16:33:26.757Z,12.70
2023-03-16T16:38:25.641Z,11.60
2023-03-16T16:43:32.274Z,10.80
2023-03-16T16:48:35.180Z,10.40
2023-03-16T16:53:33.679Z,10.20
2023-03-16T16:58:32.387Z,9.90
2023-03-16T17:03:31.970Z,9.70
2023-03-16T17:08:30.204Z,9.50
2023-03-16T17:13:33.875Z,9.40
2023-03-16T17:18:34.049Z,9.30
2023-03-16T17:23:35.095Z,9.30
2023-03-16T17:28:38.784Z,9.10
2023-03-16T17:33:38.363Z,9.10
2023-03-16T17:38:37.436Z,9.10
2023-03-16T17:43:35.859Z,8.80
2023-03-16T17:48:34.078Z,8.80
2023-03-16T17:53:33.693Z,8.80
2023-03-16T17:58:32.549Z,8.80
2023-03-16T18:03:30.965Z,8.70
2023-03-16T18:08:33.486Z,8.60
2023-03-16T18:13:35.366Z,8.50
2023-03-16T18:18:36.698Z,8.50
2023-03-16T18:23:36.986Z,8.50
2023-03-16T18:28:36.744Z,8.60
2023-03-16T18:33:37.078Z,8.40
2023-03-16T18:38:36.956Z,8.40
2023-03-16T18:43:36.638Z,8.30
2023-03-16T18:48:36.791Z,8.30
2023-03-16T18:53:35.050Z,8.30
2023-03-16T18:58:34.009Z,8.20
2023-03-16T19:03:42.119Z,8.20
2023-03-16T19:08:40.716Z,8.30
2023-03-16T19:13:38.941Z,8.20
2023-03-16T19:18:42.128Z,8.10
2023-03-16T19:23:40.412Z,8.00
2023-03-16T19:28:41.022Z,7.90
2023-03-16T19:33:40.652Z,7.90
2023-03-16T19:38:38.892Z,7.80
2023-03-16T19:43:37.259Z,7.80
2023-03-16T19:48:35.637Z,7.90
2023-03-16T19:53:35.236Z,7.80
2023-03-16T19:58:38.588Z,7.80
2023-03-16T20:03:38.709Z,7.80
2023-03-16T20:08:38.306Z,7.70
2023-03-16T20:13:36.949Z,7.70
2023-03-16T20:18:35.096Z,7.70
2023-03-16T20:23:33.746Z,7.60
2023-03-16T20:28:36.976Z,7.70
2023-03-16T20:33:35.299Z,7.60
2023-03-16T20:38:33.528Z,7.50
2023-03-16T20:43:34.550Z,7.50
2023-03-16T20:48:33.146Z,7.50
2023-03-16T20:53:31.404Z,7.70
2023-03-16T20:58:31.046Z,7.50
2023-03-16T21:03:33.501Z,7.40
2023-03-16T21:08:31.586Z,7.40
2023-03-16T21:13:31.983Z,7.50
2023-03-16T21:18:33.142Z,7.50
2023-03-16T21:23:31.537Z,7.50
2023-03-16T21:28:33.224Z,7.40
2023-03-16T21:33:35.076Z,7.40
2023-03-16T21:38:33.878Z,7.40
2023-03-16T21:43:32.351Z,7.30
2023-03-16T21:48:37.321Z,7.30
2023-03-16T21:53:36.427Z,7.30
2023-03-16T21:58:34.703Z,7.30
2023-03-16T22:03:50.088Z,7.20
2023-03-16T22:08:49.435Z,7.20
2023-03-16T22:13:47.770Z,7.10
2023-03-16T22:18:50.062Z,7.20
2023-03-16T22:23:48.580Z,7.10
2023-03-16T22:28:48.301Z,7.00
2023-03-16T22:33:49.205Z,7.00
2023-03-16T22:38:51.489Z,6.90
2023-03-16T22:43:49.873Z,6.80
2023-03-16T22:48:49.707Z,6.90
2023-03-16T22:53:48.436Z,6.70
2023-03-16T22:58:50.458Z,6.60
2023-03-16T23:03:51.869Z,6.60
2023-03-16T23:14:13.797Z,6.50
2023-03-16T23:19:26.851Z,6.40
2023-03-16T23:24:25.332Z,6.40
2023-03-16T23:29:24.505Z,6.40
2023-03-16T23:34:26.371Z,6.20
2023-03-16T23:39:24.417Z,6.20
2023-03-16T23:44:25.621Z,6.40
2023-03-16T23:49:27.421Z,6.10
2023-03-16T23:54:28.352Z,6.00
2023-03-16T23:59:27.506Z,6.00
